Time;durP1;ratioP1;P1;durP2;ratioP2;P2;SDS_P1;SDS_P2;PMS_P1;PMS_P2;Temp;Humidity;BMP_temperature;BMP_pressure;BME280_temperature;BME280_humidity;BME280_pressure;Samples;Min_cycle;Max_cycle;Signal;HPM_P1;HPM_P2
2022/05/08 00:01:58;;;;;;;10.43;2.60;;;;;;;6.37;98.60;102879.44;5062378;28;20100;-71
2022/05/08 00:04:23;;;;;;;8.93;2.47;;;;;;;6.36;98.58;102885.56;5043451;28;20129;-71
2022/05/08 00:06:49;;;;;;;10.80;2.70;;;;;;;6.35;98.77;102888.19;5030335;28;20068;-71
2022/05/08 00:09:14;;;;;;;6.00;2.20;;;;;;;6.35;99.09;102883.81;5043129;28;20043;-71
2022/05/08 00:11:40;;;;;;;6.30;2.30;;;;;;;6.35;98.65;102878.56;5043723;28;20507;-71
2022/05/08 00:14:05;;;;;;;6.03;2.55;;;;;;;6.34;98.36;102882.06;5058521;28;20198;-70
2022/05/08 00:16:31;;;;;;;6.38;3.10;;;;;;;6.36;99.06;102879.41;5062391;28;20024;-70
2022/05/08 00:18:57;;;;;;;9.10;2.38;;;;;;;6.35;98.44;102877.66;5062740;28;20065;-71
2022/05/08 00:21:22;;;;;;;6.25;2.22;;;;;;;6.37;99.73;102886.44;5060647;28;20139;-71
2022/05/08 00:23:48;;;;;;;7.15;2.40;;;;;;;6.38;99.75;102878.56;5061379;28;20131;-71
2022/05/08 00:26:13;;;;;;;5.28;2.10;;;;;;;6.41;99.99;102879.44;5060401;28;20036;-71
2022/05/08 00:28:39;;;;;;;6.10;2.58;;;;;;;6.41;100.00;102869.81;5061160;28;20681;-71
2022/05/08 00:31:08;;;;;;;7.68;3.13;;;;;;;6.42;100.00;102874.19;5062004;28;20028;-72
2022/05/08 00:33:33;;;;;;;5.05;2.53;;;;;;;6.41;100.00;102871.53;5061783;28;20042;-71
2022/05/08 00:35:59;;;;;;;11.43;2.78;;;;;;;6.41;100.00;102874.19;5061379;28;20036;-71
2022/05/08 00:38:24;;;;;;;12.02;3.72;;;;;;;6.38;100.00;102868.03;5061851;28;20030;-71
2022/05/08 00:40:50;;;;;;;8.10;2.67;;;;;;;6.37;100.00;102873.28;5058169;28;20082;-71
2022/05/08 00:43:33;;;;;;;6.63;2.70;;;;;;;6.35;100.00;102873.31;5060126;28;20033;-71
2022/05/08 00:46:07;;;;;;;7.35;2.60;;;;;;;6.31;100.00;102868.03;5042952;28;20051;-71
2022/05/08 00:48:34;;;;;;;6.75;2.72;;;;;;;6.28;100.00;102881.13;5060941;28;20802;-71
2022/05/08 00:51:01;;;;;;;8.65;2.95;;;;;;;6.25;100.00;102871.47;5031472;28;20034;-71
2022/05/08 00:53:30;;;;;;;11.40;2.88;;;;;;;6.23;100.00;102878.50;5026785;28;20063;-71
2022/05/08 00:55:56;;;;;;;7.65;2.60;;;;;;;6.19;100.00;102872.34;5061309;28;20035;-71
2022/05/08 00:58:22;;;;;;;8.80;2.50;;;;;;;6.17;100.00;102866.19;5046349;28;20143;-72
2022/05/08 01:00:48;;;;;;;8.02;2.60;;;;;;;6.16;100.00;102867.03;5062113;28;20033;-71
2022/05/08 01:03:14;;;;;;;10.82;2.50;;;;;;;6.14;100.00;102868.78;5046150;28;20047;-71
2022/05/08 01:05:43;;;;;;;8.02;2.40;;;;;;;6.13;100.00;102871.41;5047216;28;20040;-71
2022/05/08 01:08:09;;;;;;;10.88;2.50;;;;;;;6.13;100.00;102863.50;5064709;28;20072;-71
2022/05/08 01:10:36;;;;;;;7.90;2.90;;;;;;;6.10;100.00;102870.53;5044877;28;20036;-71
2022/05/08 01:13:03;;;;;;;8.00;2.80;;;;;;;6.08;100.00;102861.75;5044662;28;20488;-71
2022/05/08 01:15:29;;;;;;;11.95;2.80;;;;;;;6.08;100.00;102861.75;5030109;28;20099;-72
2022/05/08 01:17:55;;;;;;;8.10;2.42;;;;;;;6.08;100.00;102863.50;5028315;28;20031;-71
2022/05/08 01:20:21;;;;;;;4.97;2.30;;;;;;;6.06;100.00;102866.09;5064961;28;20032;-72
2022/05/08 01:22:47;;;;;;;8.93;2.63;;;;;;;6.03;100.00;102860.84;5064886;28;20039;-71
2022/05/08 01:25:12;;;;;;;9.02;2.47;;;;;;;6.01;100.00;102864.28;5044913;28;20081;-72
2022/05/08 01:27:38;;;;;;;7.28;2.63;;;;;;;6.00;100.00;102867.81;5060364;28;20518;-72
2022/05/08 01:30:05;;;;;;;7.50;2.60;;;;;;;5.98;100.00;102868.69;5061481;28;20743;-72
2022/05/08 01:32:31;;;;;;;8.50;2.58;;;;;;;5.98;100.00;102867.78;5047740;28;20020;-72
2022/05/08 01:34:57;;;;;;;7.03;2.25;;;;;;;5.97;100.00;102866.91;5043006;28;20047;-72
2022/05/08 01:37:22;;;;;;;12.65;3.50;;;;;;;5.97;100.00;102868.66;5063900;28;22130;-72
2022/05/08 01:39:47;;;;;;;7.85;2.75;;;;;;;5.96;100.00;102864.28;5029732;28;20035;-73
2022/05/08 01:42:13;;;;;;;5.82;2.03;;;;;;;5.96;100.00;102869.53;5045447;28;20037;-72
2022/05/08 01:44:38;;;;;;;8.52;2.13;;;;;;;5.96;100.00;102869.53;5063744;28;20039;-72
2022/05/08 01:49:49;;;;;;;5.30;2.38;;;;;;;5.98;100.00;102878.28;5063727;28;20028;-71
2022/05/08 01:52:14;;;;;;;9.25;3.05;;;;;;;5.98;100.00;102873.94;5044780;28;20075;-72
2022/05/08 01:54:40;;;;;;;8.25;2.95;;;;;;;5.99;100.00;102872.16;5061705;28;20051;-71
2022/05/08 01:57:06;;;;;;;6.65;2.72;;;;;;;6.01;100.00;102869.56;5049828;28;20087;-72
2022/05/08 01:59:31;;;;;;;7.25;2.92;;;;;;;6.01;100.00;102864.28;5061780;28;20468;-71
2022/05/08 02:01:57;;;;;;;8.05;2.22;;;;;;;6.02;100.00;102866.06;5063391;28;20096;-73
2022/05/08 02:04:23;;;;;;;12.27;2.30;;;;;;;6.00;100.00;102873.06;5064722;28;20159;-72
2022/05/08 02:06:49;;;;;;;12.60;2.38;;;;;;;6.00;100.00;102865.16;5063985;28;21941;-72
2022/05/08 02:09:15;;;;;;;6.22;2.28;;;;;;;6.01;100.00;102870.44;5044748;28;20035;-73
2022/05/08 02:11:41;;;;;;;9.75;2.20;;;;;;;5.99;100.00;102866.91;5064602;28;20032;-72
2022/05/08 02:14:06;;;;;;;4.18;2.08;;;;;;;5.98;99.76;102876.56;5040929;28;20115;-72
2022/05/08 02:16:32;;;;;;;10.38;2.20;;;;;;;5.98;100.00;102870.41;5062917;28;20029;-72
2022/05/08 02:18:57;;;;;;;5.88;2.20;;;;;;;5.95;100.00;102871.25;5064717;28;20502;-72
2022/05/08 02:21:24;;;;;;;6.55;3.15;;;;;;;5.94;100.00;102868.66;5064309;28;20653;-72
2022/05/08 02:23:49;;;;;;;5.45;2.20;;;;;;;5.92;99.35;102878.25;5060425;28;20036;-73
2022/05/08 02:26:15;;;;;;;8.70;2.20;;;;;;;5.90;100.00;102874.75;5042889;28;20032;-72
2022/05/08 02:28:40;;;;;;;5.07;2.20;;;;;;;5.86;99.75;102876.47;5059999;28;20054;-72
2022/05/08 02:31:06;;;;;;;4.35;2.30;;;;;;;5.84;99.92;102876.47;5062579;28;20035;-72
2022/05/08 02:33:33;;;;;;;4.70;2.38;;;;;;;5.83;100.00;102884.34;5062419;28;20040;-72
2022/05/08 02:35:59;;;;;;;5.93;2.03;;;;;;;5.82;99.64;102877.31;5061929;28;20048;-72
2022/05/08 02:38:25;;;;;;;4.15;2.15;;;;;;;5.81;99.93;102883.44;5063029;28;20037;-73
2022/05/08 02:40:53;;;;;;;9.50;3.17;;;;;;;5.79;99.95;102878.19;5063049;28;20071;-72
2022/05/08 02:43:21;;;;;;;7.63;2.80;;;;;;;5.78;99.67;102886.06;5060832;28;20094;-72
2022/05/08 02:45:47;;;;;;;9.85;2.83;;;;;;;5.78;99.81;102886.06;5062417;28;20673;-73
2022/05/08 02:48:13;;;;;;;6.63;2.78;;;;;;;5.75;99.95;102886.03;5060095;28;20047;-72
2022/05/08 02:50:39;;;;;;;7.55;2.70;;;;;;;5.72;99.61;102881.63;5063307;28;20728;-72
2022/05/08 02:53:04;;;;;;;8.20;2.90;;;;;;;5.71;100.00;102880.75;5063040;28;20028;-72
2022/05/08 02:58:33;;;;;;;11.23;3.60;;;;;;;5.71;99.90;102887.75;5021166;28;20130;-72
2022/05/08 03:01:05;;;;;;;9.02;2.80;;;;;;;5.69;99.92;102885.13;5043613;28;20103;-72
2022/05/08 03:03:31;;;;;;;6.72;2.20;;;;;;;5.68;100.00;102885.09;5013987;28;20044;-72
2022/05/08 03:05:57;;;;;;;6.05;2.60;;;;;;;5.65;100.00;102880.72;5046346;28;21844;-72
2022/05/08 03:08:23;;;;;;;8.25;2.55;;;;;;;5.63;99.98;102881.56;5031412;28;20056;-72
2022/05/08 03:13:38;;;;;;;11.95;2.95;;;;;;;5.60;100.00;102881.53;5042563;28;20040;-72
2022/05/08 03:16:05;;;;;;;8.95;2.92;;;;;;;5.58;100.00;102879.75;5044552;28;20040;-72
2022/05/08 03:18:31;;;;;;;7.82;2.28;;;;;;;5.58;100.00;102890.28;5041688;28;20040;-72
2022/05/08 03:20:56;;;;;;;8.07;2.78;;;;;;;5.60;100.00;102892.06;5044187;28;20040;-72
2022/05/08 03:23:22;;;;;;;6.57;2.58;;;;;;;5.60;100.00;102892.06;5043321;28;20039;-72
2022/05/08 03:25:48;;;;;;;7.47;2.72;;;;;;;5.60;100.00;102892.06;5061518;28;20115;-72
2022/05/08 03:28:15;;;;;;;6.32;2.60;;;;;;;5.60;100.00;102894.69;5060169;28;20435;-72
2022/05/08 03:30:42;;;;;;;7.05;2.80;;;;;;;5.56;100.00;102899.91;5062981;28;20032;-72
2022/05/08 03:33:09;;;;;;;6.32;2.42;;;;;;;5.52;100.00;102899.88;5062098;28;20097;-72
2022/05/08 03:35:39;;;;;;;3.58;2.13;;;;;;;5.47;100.00;102902.47;5043732;28;20044;-72
2022/05/08 03:38:05;;;;;;;5.82;2.08;;;;;;;5.42;100.00;102906.78;5060840;28;20541;-72
2022/05/08 03:40:35;;;;;;;8.20;2.15;;;;;;;5.38;100.00;102898.00;5044323;28;20088;-72
2022/05/08 03:43:01;;;;;;;7.15;2.20;;;;;;;5.36;100.00;102901.47;5058463;28;20044;-72
2022/05/08 03:45:31;;;;;;;6.80;2.30;;;;;;;5.33;100.00;102897.06;5043137;28;20051;-72
2022/05/08 03:47:56;;;;;;;4.53;2.00;;;;;;;5.33;100.00;102896.19;5061032;28;20025;-73
2022/05/08 03:50:22;;;;;;;7.03;2.45;;;;;;;5.30;100.00;102895.28;5063546;28;20039;-73
2022/05/08 03:52:48;;;;;;;7.43;2.05;;;;;;;5.30;100.00;102900.53;5061328;28;20023;-72
2022/05/08 03:55:18;;;;;;;4.35;2.10;;;;;;;5.30;100.00;102900.53;5048616;28;20040;-72
2022/05/08 03:57:44;;;;;;;5.60;2.55;;;;;;;5.30;100.00;102897.03;5043343;28;20036;-72
2022/05/08 04:00:11;;;;;;;6.78;2.05;;;;;;;5.29;100.00;102904.03;5059237;28;20396;-72
2022/05/08 04:02:37;;;;;;;7.60;2.53;;;;;;;5.29;100.00;102904.03;5059097;28;20040;-72
2022/05/08 04:05:03;;;;;;;4.47;2.00;;;;;;;5.30;100.00;102903.16;5063687;28;22002;-72
2022/05/08 04:07:30;;;;;;;4.07;2.22;;;;;;;5.30;100.00;102900.53;5060913;28;20532;-72
2022/05/08 04:09:55;;;;;;;5.10;2.30;;;;;;;5.29;100.00;102906.66;5029118;28;20031;-72
2022/05/08 04:12:21;;;;;;;5.97;2.45;;;;;;;5.28;99.85;102906.63;5040604;28;20140;-72
2022/05/08 04:14:46;;;;;;;5.60;1.92;;;;;;;5.27;99.86;102911.03;5040926;28;20044;-72
2022/05/08 04:17:12;;;;;;;3.95;1.90;;;;;;;5.28;100.00;102906.63;5043249;28;20024;-72
2022/05/08 04:19:38;;;;;;;3.63;1.92;;;;;;;5.29;100.00;102909.28;5061160;28;21091;-72
2022/05/08 04:24:48;;;;;;;4.68;1.73;;;;;;;5.32;100.00;102912.84;5062745;28;20037;-72
2022/05/08 04:27:13;;;;;;;6.70;1.92;;;;;;;5.32;100.00;102903.19;5044722;28;20086;-73
2022/05/08 04:29:39;;;;;;;5.18;2.20;;;;;;;5.34;99.69;102905.84;5049697;28;20170;-72
2022/05/08 04:32:05;;;;;;;7.15;1.75;;;;;;;5.37;99.89;102908.47;5030576;28;20043;-72
2022/05/08 04:34:30;;;;;;;6.32;1.88;;;;;;;5.38;99.77;102904.97;5067712;28;20111;-73
2022/05/08 04:36:56;;;;;;;4.22;1.77;;;;;;;5.41;100.00;102907.66;5067185;28;20038;-72
2022/05/08 04:39:21;;;;;;;4.78;1.70;;;;;;;5.43;99.46;102912.06;5032963;28;20703;-72
2022/05/08 04:41:47;;;;;;;4.97;1.80;;;;;;;5.44;99.36;102911.19;5048064;28;20032;-72
2022/05/08 04:44:12;;;;;;;6.85;2.45;;;;;;;5.49;99.25;102913.84;5064840;28;21029;-72
2022/05/08 04:46:38;;;;;;;4.82;1.70;;;;;;;5.52;99.56;102911.28;5063904;28;20052;-72
2022/05/08 04:49:04;;;;;;;6.50;2.00;;;;;;;5.56;99.56;102917.44;5046297;28;21834;-72
2022/05/08 04:51:29;;;;;;;3.17;1.70;;;;;;;5.58;99.19;102913.94;5065481;28;20040;-72
2022/05/08 04:53:55;;;;;;;5.45;1.42;;;;;;;5.65;99.29;102921.88;5065131;28;20040;-72
2022/05/08 04:56:21;;;;;;;5.50;1.90;;;;;;;5.71;98.82;102921.91;5065382;28;20036;-72
2022/05/08 04:58:47;;;;;;;2.65;1.58;;;;;;;5.77;98.81;102921.97;5063750;28;20044;-72
2022/05/08 05:01:13;;;;;;;5.78;1.90;;;;;;;5.85;98.92;102924.66;5065082;28;20036;-72
2022/05/08 05:03:38;;;;;;;7.20;1.70;;;;;;;5.93;99.34;102927.34;5047040;28;20111;-72
2022/05/08 05:06:04;;;;;;;4.63;1.70;;;;;;;6.03;98.54;102930.94;5043688;28;20036;-72
2022/05/08 05:08:29;;;;;;;4.38;1.63;;;;;;;6.14;98.29;102925.78;5046816;28;20059;-72
2022/05/08 05:10:55;;;;;;;2.08;1.60;;;;;;;6.24;98.57;102927.59;5064362;28;20033;-72
2022/05/08 05:13:20;;;;;;;5.50;1.65;;;;;;;6.33;98.24;102932.03;5031859;28;20024;-72
2022/05/08 05:15:46;;;;;;;1.92;1.50;;;;;;;6.42;97.45;102931.22;5061942;28;20028;-72
2022/05/08 05:18:12;;;;;;;3.72;1.75;;;;;;;6.51;97.51;102941.78;5046285;28;20070;-72
2022/05/08 05:20:37;;;;;;;5.35;1.77;;;;;;;6.59;97.46;102944.47;5051877;28;20028;-72
2022/05/08 05:23:03;;;;;;;3.35;1.60;;;;;;;6.66;96.58;102941.84;5036221;28;20028;-72
2022/05/08 05:25:29;;;;;;;1.42;1.30;;;;;;;6.72;96.15;102938.38;5063184;28;20067;-72
2022/05/08 05:27:55;;;;;;;4.38;1.70;;;;;;;6.79;96.21;102947.16;5029012;28;20130;-72
2022/05/08 05:30:21;;;;;;;5.70;1.40;;;;;;;6.87;96.02;102942.81;5035066;28;20075;-72
2022/05/08 05:32:46;;;;;;;2.90;1.25;;;;;;;6.95;95.97;102952.50;5066129;28;20160;-72
2022/05/08 05:35:13;;;;;;;3.28;1.55;;;;;;;7.01;95.57;102949.88;5067826;28;20032;-72
2022/05/08 05:37:39;;;;;;;2.92;1.70;;;;;;;7.03;95.37;102958.69;5048113;28;20032;-71
2022/05/08 05:40:06;;;;;;;2.35;1.48;;;;;;;7.04;95.10;102963.06;5066172;28;21812;-72
2022/05/08 05:42:32;;;;;;;3.10;1.65;;;;;;;7.06;95.41;102966.59;5051707;28;20028;-72
2022/05/08 05:44:57;;;;;;;8.35;2.15;;;;;;;7.10;95.20;102968.38;5046034;28;20056;-73
2022/05/08 05:50:08;;;;;;;5.90;1.63;;;;;;;7.16;95.08;102960.50;5065619;28;20031;-72
2022/05/08 05:52:35;;;;;;;3.30;1.42;;;;;;;7.21;94.97;102968.41;5045248;28;20079;-73
2022/05/08 05:55:02;;;;;;;2.00;1.20;;;;;;;7.29;94.80;102971.94;5064627;28;20055;-73
2022/05/08 05:57:28;;;;;;;5.88;1.40;;;;;;;7.40;94.59;102971.09;5063226;28;20085;-73
2022/05/08 05:59:54;;;;;;;4.65;1.30;;;;;;;7.48;95.08;102971.97;5063054;28;20412;-72
2022/05/08 06:02:19;;;;;;;2.72;1.45;;;;;;;7.53;94.55;102970.22;5062575;28;20030;-73
2022/05/08 06:04:44;;;;;;;3.47;1.30;;;;;;;7.58;93.64;102964.97;5063406;28;20648;-73
2022/05/08 06:07:10;;;;;;;4.38;1.40;;;;;;;7.69;93.68;102978.16;5045963;28;20496;-73
2022/05/08 06:09:35;;;;;;;2.25;1.67;;;;;;;7.79;94.31;102971.13;5063427;28;20104;-72
2022/05/08 06:12:01;;;;;;;3.90;1.30;;;;;;;7.96;94.58;102971.97;5035562;28;20527;-72
2022/05/08 06:14:27;;;;;;;2.30;1.45;;;;;;;8.07;93.48;102987.81;5060365;28;20611;-72
2022/05/08 06:16:54;;;;;;;2.40;1.80;;;;;;;8.15;92.95;102982.53;5032549;28;20031;-71
2022/05/08 06:19:19;;;;;;;4.80;1.50;;;;;;;8.24;92.71;102993.06;5064311;28;20032;-71
2022/05/08 06:21:47;;;;;;;1.33;1.23;;;;;;;8.33;92.38;102992.19;5062476;28;20055;-72
2022/05/08 06:24:13;;;;;;;2.88;1.23;;;;;;;8.39;91.69;102996.59;5063724;28;20035;-73
2022/05/08 06:26:38;;;;;;;2.60;1.40;;;;;;;8.56;90.49;102991.31;5028514;28;20060;-72
2022/05/08 06:29:04;;;;;;;3.95;1.40;;;;;;;8.87;90.83;102990.34;5059566;28;20035;-72
2022/05/08 06:31:30;;;;;;;2.60;1.00;;;;;;;9.21;90.29;102984.88;5029529;28;20039;-71
2022/05/08 06:33:55;;;;;;;3.67;1.20;;;;;;;9.51;88.96;102985.56;5033172;28;20044;-72
2022/05/08 06:36:21;;;;;;;1.42;1.05;;;;;;;9.72;87.09;102983.66;5063878;28;20036;-72
2022/05/08 06:38:47;;;;;;;4.00;1.30;;;;;;;9.91;85.44;102987.91;5045590;28;20644;-72
2022/05/08 06:41:13;;;;;;;2.83;0.80;;;;;;;10.10;84.52;102995.72;5061286;28;20048;-74
2022/05/08 06:43:42;;;;;;;1.27;1.10;;;;;;;10.32;84.03;102996.38;5044142;28;20031;-72
2022/05/08 06:46:08;;;;;;;2.13;0.90;;;;;;;10.49;81.79;103005.94;5058333;28;20060;-72
2022/05/08 06:48:38;;;;;;;2.97;1.20;;;;;;;10.56;81.66;102993.50;5040516;28;20043;-73
2022/05/08 06:51:03;;;;;;;4.97;1.23;;;;;;;10.64;82.50;103002.25;5061708;28;20261;-72
2022/05/08 06:53:30;;;;;;;2.35;0.93;;;;;;;10.68;80.69;103003.97;5043167;28;20593;-72
2022/05/08 06:55:56;;;;;;;2.00;1.00;;;;;;;10.69;82.63;103004.84;5042583;28;20846;-71
2022/05/08 06:58:21;;;;;;;4.05;1.00;;;;;;;10.83;82.71;103004.69;5041960;28;20032;-72
2022/05/08 07:03:33;;;;;;;2.97;0.98;;;;;;;11.04;79.47;103013.25;5059211;28;20028;-71
2022/05/08 07:06:00;;;;;;;2.20;0.90;;;;;;;10.97;79.08;103002.75;5060063;28;20086;-72
2022/05/08 07:08:26;;;;;;;2.42;1.00;;;;;;;11.00;78.97;103008.00;5042039;28;20115;-73
2022/05/08 07:10:51;;;;;;;1.15;0.82;;;;;;;11.04;76.98;103011.50;5024821;28;20347;-72
2022/05/08 07:13:17;;;;;;;1.30;0.88;;;;;;;11.14;78.15;103012.25;5040113;28;20060;-72
2022/05/08 07:15:42;;;;;;;3.65;1.20;;;;;;;11.34;77.67;103011.97;5038679;28;20040;-72
2022/05/08 07:18:08;;;;;;;1.48;0.80;;;;;;;11.58;74.55;103011.63;5062728;28;20039;-72
2022/05/08 07:20:33;;;;;;;1.42;0.80;;;;;;;11.71;76.41;103013.19;5024185;28;20043;-74
2022/05/08 07:23:00;;;;;;;1.55;1.02;;;;;;;11.82;75.62;103015.69;5058884;28;20131;-72
2022/05/08 07:25:26;;;;;;;1.80;0.90;;;;;;;11.92;75.05;103005.78;5060549;28;20032;-72
2022/05/08 07:27:52;;;;;;;2.40;0.85;;;;;;;12.00;75.18;103013.63;5059428;28;20044;-72
2022/05/08 07:30:18;;;;;;;7.15;1.23;;;;;;;12.06;74.59;103014.47;5056786;28;20115;-71
2022/05/08 07:32:44;;;;;;;2.67;0.90;;;;;;;12.06;74.90;103017.13;5055054;28;20536;-71
2022/05/08 07:37:55;;;;;;;1.77;0.98;;;;;;;11.97;71.69;103014.56;5059900;28;20621;-70
2022/05/08 07:40:21;;;;;;;6.18;1.10;;;;;;;11.96;73.98;103023.44;5060939;28;20024;-71
2022/05/08 07:42:46;;;;;;;7.65;1.10;;;;;;;11.94;72.54;103018.13;5059881;28;20099;-70
2022/05/08 07:45:12;;;;;;;4.97;0.98;;;;;;;12.01;72.64;103026.00;5061089;28;20187;-74
2022/05/08 07:47:39;;;;;;;5.70;1.00;;;;;;;12.03;73.09;103019.81;5061966;28;20505;-70
2022/05/08 07:50:07;;;;;;;1.83;0.90;;;;;;;12.07;72.41;103021.53;5030440;28;20028;-71
2022/05/08 07:52:38;;;;;;;3.83;1.50;;;;;;;12.14;68.29;103024.06;5076890;28;20044;-73
2022/05/08 07:55:05;;;;;;;6.32;1.10;;;;;;;12.23;70.22;103026.56;5139891;22;20169;-70
2022/05/08 07:57:31;;;;;;;4.68;1.00;;;;;;;12.25;69.80;103018.56;5099821;28;20040;-72
2022/05/08 07:59:56;;;;;;;2.60;0.80;;;;;;;12.25;67.30;103026.53;5065023;28;20592;-70
2022/05/08 08:02:22;;;;;;;2.00;0.93;;;;;;;12.25;69.60;103029.19;5077179;28;20038;-70
2022/05/08 08:04:48;;;;;;;2.75;1.15;;;;;;;12.35;68.41;103026.34;5094776;28;20024;-72
2022/05/08 08:07:13;;;;;;;2.63;1.02;;;;;;;12.53;68.95;103024.22;5080330;28;20038;-71
2022/05/08 08:12:21;;;;;;;2.90;0.90;;;;;;;12.96;69.69;103030.47;5072771;26;20122;-71
2022/05/08 08:14:46;;;;;;;1.92;1.00;;;;;;;13.16;68.99;103040.72;5041035;28;20052;-72
2022/05/08 08:17:12;;;;;;;2.17;1.05;;;;;;;13.24;67.00;103037.00;5068022;28;20115;-73
2022/05/08 08:19:37;;;;;;;3.35;1.55;;;;;;;13.08;67.00;103037.31;5049954;28;20025;-70
2022/05/08 08:22:03;;;;;;;2.13;1.00;;;;;;;12.93;67.23;103043.84;5050494;28;20025;-71
2022/05/08 08:24:29;;;;;;;3.83;1.20;;;;;;;12.66;66.56;103042.59;5067157;28;20451;-72
2022/05/08 08:26:54;;;;;;;3.15;1.10;;;;;;;12.53;67.00;103036.66;5052417;28;20048;-73
2022/05/08 08:29:20;;;;;;;1.80;1.00;;;;;;;12.55;67.44;103040.16;5070171;28;20048;-73
2022/05/08 08:32:09;;;;;;;2.63;1.00;;;;;;;12.70;65.07;103041.66;5147285;22;20081;-73
2022/05/08 08:34:34;;;;;;;4.15;1.20;;;;;;;12.83;67.03;103037.84;5103963;28;20059;-74
2022/05/08 08:37:00;;;;;;;7.40;1.13;;;;;;;12.90;67.01;103044.78;5089580;28;20609;-69
2022/05/08 08:39:28;;;;;;;5.00;1.10;;;;;;;13.07;65.96;103048.00;5087415;28;20546;-69
2022/05/08 08:42:20;;;;;;;2.72;1.00;;;;;;;13.25;64.97;103039.63;5099292;28;20032;-72
2022/05/08 08:48:06;;;;;;;3.22;1.02;;;;;;;13.52;64.73;103047.06;5096737;28;20089;-71
2022/05/08 08:50:32;;;;;;;2.30;1.08;;;;;;;13.52;64.94;103041.75;5114497;28;20036;-72
2022/05/08 08:53:05;;;;;;;2.35;0.90;;;;;;;13.11;64.30;103042.59;5079401;28;20032;-72
2022/05/08 08:55:31;;;;;;;2.33;1.10;;;;;;;12.90;64.18;103050.09;5085421;28;20051;-70
2022/05/08 08:57:57;;;;;;;4.50;1.00;;;;;;;12.77;63.25;103045.94;5055152;28;20177;-70
2022/05/08 09:00:23;;;;;;;1.52;0.90;;;;;;;12.73;64.09;103044.22;5052911;28;20498;-69
2022/05/08 09:02:53;;;;;;;3.60;1.20;;;;;;;12.84;63.72;103044.91;5079379;28;20085;-75
2022/05/08 09:05:19;;;;;;;2.30;1.05;;;;;;;13.01;65.25;103046.31;5076192;28;20817;-71
2022/05/08 09:07:45;;;;;;;1.73;0.90;;;;;;;13.20;64.86;103046.84;5077094;28;20032;-72
2022/05/08 09:10:15;;;;;;;1.75;0.90;;;;;;;13.37;64.67;103043.81;5060820;28;20059;-72
2022/05/08 09:13:02;;;;;;;3.35;1.73;;;;;;;13.32;62.26;103035.06;5077894;28;20598;-72
2022/05/08 09:15:29;;;;;;;1.65;1.10;;;;;;;13.38;61.32;103045.56;5076156;28;20024;-71
2022/05/08 09:18:13;;;;;;;4.13;1.05;;;;;;;13.34;62.21;103049.19;5064105;28;20031;-72
2022/05/08 09:20:42;;;;;;;2.97;1.38;;;;;;;13.47;63.69;103041.84;5080428;28;20043;-72
2022/05/08 09:23:09;;;;;;;3.78;1.40;;;;;;;13.55;64.25;103045.22;5083180;28;20023;-71
2022/05/08 09:25:44;;;;;;;1.85;0.90;;;;;;;13.48;62.33;103037.38;5080675;28;20036;-71
2022/05/08 09:28:22;;;;;;;2.55;1.00;;;;;;;13.34;63.20;103045.66;5085148;28;20039;-72
2022/05/08 09:30:56;;;;;;;4.88;1.20;;;;;;;13.25;60.45;103044.06;5067662;28;20028;-73
2022/05/08 09:33:23;;;;;;;2.30;1.05;;;;;;;13.12;63.90;103046.09;5068146;28;20121;-71
2022/05/08 09:35:49;;;;;;;3.42;1.00;;;;;;;13.21;64.08;103039.72;5070899;28;20089;-72
2022/05/08 09:38:14;;;;;;;6.35;1.10;;;;;;;13.21;63.30;103042.38;5066791;28;20091;-72
2022/05/08 09:40:40;;;;;;;3.70;1.38;;;;;;;13.39;63.85;103039.31;5056618;28;20121;-73
2022/05/08 09:43:05;;;;;;;1.42;0.95;;;;;;;13.57;62.98;103039.84;5031768;28;21120;-71
2022/05/08 09:45:31;;;;;;;3.08;1.15;;;;;;;13.62;61.03;103031.75;5063428;28;20094;-70
2022/05/08 09:47:57;;;;;;;3.15;1.00;;;;;;;13.56;61.06;103040.75;5066864;28;20032;-70
2022/05/08 09:50:22;;;;;;;1.80;1.10;;;;;;;13.51;60.83;103035.53;5065781;28;20040;-72
2022/05/08 09:52:48;;;;;;;5.40;1.10;;;;;;;13.48;61.07;103040.94;5064486;28;20047;-70
2022/05/08 09:55:14;;;;;;;3.03;0.90;;;;;;;13.53;61.21;103041.72;5068073;28;20036;-70
2022/05/08 09:57:40;;;;;;;2.50;1.13;;;;;;;13.61;60.06;103036.19;5064774;28;20039;-69
2022/05/08 10:00:08;;;;;;;2.15;1.00;;;;;;;13.65;60.20;103035.22;5062439;28;20075;-70
2022/05/08 10:02:35;;;;;;;3.13;0.90;;;;;;;13.71;60.73;103029.75;5069034;28;20042;-69
2022/05/08 10:05:01;;;;;;;2.17;1.05;;;;;;;13.63;59.49;103034.41;5056203;28;20031;-70
2022/05/08 10:07:27;;;;;;;3.15;0.93;;;;;;;13.67;60.15;103036.06;5068673;28;20158;-70
2022/05/08 10:15:31;;;;;;;5.28;1.30;;;;;;;13.15;57.85;103035.41;5064717;28;20058;-72
2022/05/08 10:18:31;;;;;;;2.67;1.15;;;;;;;13.10;58.47;103038.19;5064186;28;20045;-70
2022/05/08 10:21:12;;;;;;;2.15;1.10;;;;;;;12.98;59.06;103026.03;5019804;28;20131;-69
2022/05/08 10:23:42;;;;;;;3.60;1.10;;;;;;;12.83;59.62;103028.97;5049181;28;20592;-70
2022/05/08 10:26:22;;;;;;;2.95;1.10;;;;;;;12.87;59.84;103028.88;5062645;28;20425;-70
2022/05/08 10:29:12;;;;;;;4.53;1.13;;;;;;;12.92;59.91;103025.25;5066062;28;21700;-70
2022/05/08 10:31:46;;;;;;;2.10;1.00;;;;;;;13.01;60.30;103017.09;5059124;28;20044;-72
2022/05/08 10:34:13;;;;;;;6.07;1.23;;;;;;;12.99;60.28;103027.78;5075881;28;20404;-81
2022/05/08 10:36:42;;;;;;;2.97;1.08;;;;;;;12.94;58.96;103019.00;5090699;28;20036;-83
2022/05/08 10:39:37;;;;;;;2.42;1.10;;;;;;;12.92;59.95;103019.94;5087848;28;20076;-83
2022/05/08 10:42:09;;;;;;;2.55;1.15;;;;;;;12.94;60.54;103018.13;5104682;28;20027;-82
2022/05/08 10:44:37;;;;;;;2.85;1.52;;;;;;;12.98;60.51;103023.38;5075682;28;20043;-82
2022/05/08 10:47:42;;;;;;;6.13;1.17;;;;;;;12.96;59.45;103016.31;5098162;28;20111;-79
2022/05/08 10:50:14;;;;;;;3.20;1.10;;;;;;;12.95;59.98;103010.13;5017804;28;20038;-77
2022/05/08 10:52:41;;;;;;;4.18;1.00;;;;;;;12.93;58.89;103016.38;5003192;28;20046;-81
2022/05/08 10:55:09;;;;;;;5.82;0.98;;;;;;;12.76;59.97;103021.13;5009107;28;20037;-82
2022/05/08 10:57:36;;;;;;;11.90;2.10;;;;;;;12.74;60.60;103014.09;5005967;28;20025;-81
2022/05/08 11:00:28;;;;;;;4.80;1.05;;;;;;;12.72;58.59;103008.81;5004881;28;20038;-73
2022/05/08 11:02:58;;;;;;;5.77;1.30;;;;;;;12.76;58.50;103012.28;4997223;28;20041;-74
2022/05/08 11:05:25;;;;;;;4.43;1.40;;;;;;;12.72;59.60;103007.94;5018587;28;20444;-73
2022/05/08 11:07:56;;;;;;;2.40;1.20;;;;;;;12.87;59.79;103020.03;4995388;28;20540;-73
2022/05/08 11:10:36;;;;;;;3.10;1.10;;;;;;;12.79;59.29;103012.22;4967544;28;20048;-75
2022/05/08 11:13:21;;;;;;;1.67;1.17;;;;;;;12.73;58.57;103012.34;4998276;28;20084;-71
2022/05/08 11:15:48;;;;;;;4.65;1.20;;;;;;;12.69;59.85;103008.88;5020533;28;20025;-77
2022/05/08 11:18:22;;;;;;;5.53;1.10;;;;;;;12.85;60.02;103006.78;5004668;28;20046;-75
2022/05/08 11:20:53;;;;;;;2.83;1.30;;;;;;;12.99;59.63;103010.94;5060594;28;20047;-74
2022/05/08 11:23:26;;;;;;;2.30;1.00;;;;;;;13.09;58.71;103007.19;5096287;28;20507;-74
2022/05/08 11:25:54;;;;;;;2.75;0.98;;;;;;;13.05;59.33;103013.47;5087885;28;20110;-75
2022/05/08 11:28:22;;;;;;;6.15;1.35;;;;;;;13.07;59.05;103013.44;5087683;28;20115;-73
2022/05/08 11:30:47;;;;;;;4.90;1.20;;;;;;;13.10;58.79;103011.59;5098558;28;20024;-74
2022/05/08 11:36:11;;;;;;;1.95;1.10;;;;;;;13.25;59.66;103006.84;5099025;28;20040;-72
2022/05/08 11:38:50;;;;;;;4.93;1.20;;;;;;;13.18;58.75;103006.97;5097809;28;20096;-76
2022/05/08 11:41:18;;;;;;;3.90;1.30;;;;;;;13.16;58.41;103005.25;5081850;28;21545;-71
2022/05/08 11:43:51;;;;;;;3.45;1.20;;;;;;;13.13;58.60;103003.53;5092792;28;20033;-76
2022/05/08 11:46:19;;;;;;;2.58;1.30;;;;;;;13.20;58.70;103003.41;5115226;28;20024;-75
2022/05/08 11:48:47;;;;;;;3.28;1.25;;;;;;;13.18;59.49;102999.00;5089704;28;20374;-72
2022/05/08 11:51:21;;;;;;;3.60;1.67;;;;;;;13.19;59.12;102999.88;5087083;28;20036;-73
2022/05/08 11:53:49;;;;;;;1.88;0.85;;;;;;;13.18;59.13;102996.34;5073976;28;20023;-73
2022/05/08 11:56:32;;;;;;;3.53;1.10;;;;;;;13.17;55.69;103001.69;5069552;28;20119;-73
2022/05/08 11:58:59;;;;;;;1.80;1.23;;;;;;;13.05;57.83;102994.84;5077313;28;20042;-74
2022/05/08 12:01:27;;;;;;;3.28;1.17;;;;;;;13.06;58.52;102993.94;5074735;28;20038;-73
2022/05/08 12:03:53;;;;;;;6.72;1.40;;;;;;;13.08;57.16;102992.09;5075359;28;20192;-74